This is the latest recevied weather packets stored in our database for station/object KM6RDV. If no packets are shown the sender has not sent any weather packets the latest 10 day(s).
| Time | Temp. | Humidity | Pressure | Rain* | Wind** | Luminosity | Snow |
|---|---|---|---|---|---|---|---|
| 1778001619 | 14.44° C | 80% | 1018.9 hPa | 0 mm | - | 157 W/m² | - |
| 1777999218 | 13.33° C | 85% | 1018.7 hPa | 0 mm | - | 142 W/m² | - |
| 1777998619 | 13.33° C | 85% | 1018.6 hPa | 0 mm | - | 104 W/m² | - |
| 1777995618 | 12.78° C | 85% | 1018.3 hPa | 0 mm | - | 122 W/m² | - |
| 1777988440 | 12.22° C | 90% | 1017.6 hPa | 0 mm | - | 9 W/m² | - |
| 1777987817 | 12.22° C | 89% | 1017.5 hPa | 0 mm | - | 5 W/m² | - |
| 1777980638 | 12.22° C | 85% | 1017.9 hPa | 0 mm | - | 0 W/m² | - |
| 1777972838 | 11.67° C | 90% | 1018.1 hPa | 0.76 mm | - | 0 W/m² | - |
| 1777969841 | 12.22° C | 86% | 1018.4 hPa | 0.25 mm | - | 0 W/m² | - |
| 1777959618 | 13.33° C | 70% | 1018.2 hPa | 0 mm | - | 0 W/m² | - |
| 1777956017 | 13.89° C | 72% | 1018.9 hPa | 0 mm | - | 0 W/m² | - |
| 1777953618 | 13.89° C | 75% | 1018.2 hPa | 0 mm | - | 0 W/m² | - |
| 1777943420 | 16.67° C | 59% | 1017.8 hPa | 0 mm | - | 154 W/m² | - |
| 1777942218 | 16.67° C | 59% | 1017.8 hPa | 0 mm | - | 173 W/m² | - |
| 1777941618 | 16.67° C | 57% | 1017.9 hPa | 0 mm | - | 179 W/m² | - |
| 1777938038 | 17.22° C | 53% | 1018 hPa | 0 mm | - | 286 W/m² | - |
| 1777935017 | 17.78° C | 53% | 1017.9 hPa | 0 mm | - | 375 W/m² | - |
| 1777933216 | 18.33° C | 54% | 1018 hPa | 0 mm | - | 493 W/m² | - |
| 1777932024 | 18.33° C | 54% | 1018.2 hPa | 0 mm | - | 564 W/m² | - |
| 1777929616 | 17.78° C | 56% | 1018.1 hPa | 0 mm | - | 831 W/m² | - |
| 1777927841 | 17.78° C | 58% | 1018.3 hPa | 0 mm | - | 373 W/m² | - |
| 1777924847 | 17.78° C | 59% | 1018.3 hPa | 0 mm | - | 514 W/m² | - |
| 1777924224 | 17.22° C | 60% | 1018.3 hPa | 0 mm | - | 541 W/m² | - |
| 1777918844 | 17.22° C | 61% | 1018.4 hPa | 0 mm | - | 648 W/m² | - |
| 1777915818 | 16.11° C | 65% | 1018.1 hPa | 0 mm | - | 200 W/m² | - |
* Rain latest hour (hover to see other rain measurements)
** Current wind speed in m/s (hover to see current wind gust speed)